Time;durP1;ratioP1;P1;durP2;ratioP2;P2;SDS_P1;SDS_P2;PMS_P1;PMS_P2;Temp;Humidity;BMP_temperature;BMP_pressure;BME280_temperature;BME280_humidity;BME280_pressure;Samples;Min_cycle;Max_cycle;Signal;HPM_P1;HPM_P2
2022/05/13 00:02:22;;;;;;;8.98;7.03;;;12.30;99.90;;;;;;5112154;27;20039;-67
2022/05/13 00:04:48;;;;;;;8.07;7.32;;;12.20;99.90;;;;;;5111848;28;20093;-68
2022/05/13 00:07:14;;;;;;;8.93;6.57;;;12.20;99.90;;;;;;5111942;28;20031;-67
2022/05/13 00:10:00;;;;;;;9.10;7.55;;;12.20;99.90;;;;;;5111721;28;20032;-66
2022/05/13 00:12:29;;;;;;;12.38;7.65;;;12.20;99.90;;;;;;5110192;28;20043;-67
2022/05/13 00:14:55;;;;;;;7.68;6.60;;;12.20;99.90;;;;;;5110107;28;20050;-68
2022/05/13 00:17:22;;;;;;;9.32;8.23;;;12.10;99.90;;;;;;5109851;28;20035;-67
2022/05/13 00:19:48;;;;;;;8.18;7.45;;;12.10;99.90;;;;;;5111306;28;20042;-67
2022/05/13 00:22:14;;;;;;;8.77;8.07;;;12.00;99.90;;;;;;5109961;27;20106;-66
2022/05/13 00:24:40;;;;;;;9.52;8.45;;;11.90;99.90;;;;;;5109539;28;20051;-67
2022/05/13 00:27:06;;;;;;;12.60;7.43;;;12.00;99.90;;;;;;5109560;28;20032;-66
2022/05/13 00:29:33;;;;;;;10.38;6.43;;;12.00;99.90;;;;;;5111592;28;20059;-67
2022/05/13 00:31:59;;;;;;;10.82;9.10;;;11.90;99.90;;;;;;5112070;28;20036;-67
2022/05/13 00:34:25;;;;;;;8.15;7.40;;;11.90;99.90;;;;;;5110753;28;20047;-67
2022/05/13 00:36:51;;;;;;;8.32;7.43;;;12.00;99.90;;;;;;5112684;27;20116;-67
2022/05/13 00:39:19;;;;;;;10.05;9.05;;;12.00;99.90;;;;;;5111025;28;20126;-67
2022/05/13 00:41:45;;;;;;;9.80;8.80;;;12.00;99.90;;;;;;5111491;28;20122;-66
2022/05/13 00:44:11;;;;;;;7.72;7.03;;;12.00;99.90;;;;;;5111247;28;20564;-68
2022/05/13 00:46:38;;;;;;;9.00;8.38;;;12.00;99.90;;;;;;5111387;28;20040;-67
2022/05/13 00:49:07;;;;;;;9.18;8.48;;;12.10;99.90;;;;;;5110902;28;20081;-67
2022/05/13 00:51:38;;;;;;;10.77;8.35;;;12.10;99.90;;;;;;5110121;28;20036;-67
2022/05/13 00:54:08;;;;;;;12.98;9.43;;;12.10;99.90;;;;;;5110085;28;20039;-66
2022/05/13 00:56:35;;;;;;;12.05;9.95;;;12.10;99.90;;;;;;5110538;28;20051;-66
2022/05/13 00:59:05;;;;;;;9.90;8.93;;;12.20;99.90;;;;;;5109515;28;20148;-66
2022/05/13 01:01:31;;;;;;;11.55;10.48;;;12.20;99.90;;;;;;5110893;28;20368;-66
2022/05/13 01:04:04;;;;;;;10.82;9.88;;;12.20;99.90;;;;;;5111362;28;20092;-67
2022/05/13 01:06:31;;;;;;;10.98;9.82;;;12.20;99.90;;;;;;5111060;28;20538;-66
2022/05/13 01:08:56;;;;;;;9.07;8.27;;;12.20;99.90;;;;;;5110882;28;20043;-66
2022/05/13 01:11:25;;;;;;;8.90;8.05;;;12.30;99.90;;;;;;5111147;28;20028;-67
2022/05/13 01:13:57;;;;;;;8.00;7.18;;;12.40;99.90;;;;;;5111029;28;20567;-67
2022/05/13 01:16:23;;;;;;;8.68;8.10;;;12.40;99.90;;;;;;5111339;28;20092;-67
2022/05/13 01:18:48;;;;;;;8.10;7.38;;;12.40;99.90;;;;;;5110842;28;20040;-67
2022/05/13 01:21:20;;;;;;;9.35;7.00;;;12.40;99.90;;;;;;5111085;28;20039;-67
2022/05/13 01:23:47;;;;;;;8.52;7.40;;;12.50;99.90;;;;;;5111085;28;20044;-67
2022/05/13 01:26:19;;;;;;;7.40;6.68;;;12.50;99.90;;;;;;5110804;28;20046;-66
2022/05/13 01:28:47;;;;;;;6.75;6.10;;;12.50;99.90;;;;;;5110727;28;20079;-67
2022/05/13 01:31:20;;;;;;;10.48;6.68;;;12.50;99.90;;;;;;5111346;28;20031;-67
2022/05/13 01:33:46;;;;;;;9.52;6.70;;;12.40;99.90;;;;;;5111291;28;20047;-66
2022/05/13 01:36:12;;;;;;;11.23;7.18;;;12.50;99.90;;;;;;5110946;28;20586;-66
2022/05/13 01:38:39;;;;;;;10.68;6.80;;;12.50;99.90;;;;;;5114096;28;20579;-67
2022/05/13 01:41:07;;;;;;;12.07;6.65;;;12.50;99.90;;;;;;5117128;28;20040;-67
2022/05/13 01:43:34;;;;;;;9.23;7.55;;;12.50;99.90;;;;;;5117112;28;20058;-68
2022/05/13 01:45:59;;;;;;;7.63;6.88;;;12.50;99.90;;;;;;5116852;28;20400;-67
2022/05/13 01:48:26;;;;;;;7.80;7.10;;;12.60;99.90;;;;;;5115959;28;20050;-66
2022/05/13 01:50:52;;;;;;;10.85;6.40;;;12.50;99.90;;;;;;5114682;28;20028;-66
2022/05/13 01:53:17;;;;;;;9.15;6.63;;;12.60;99.90;;;;;;5113390;28;20046;-66
2022/05/13 01:55:43;;;;;;;8.55;6.55;;;12.60;99.90;;;;;;5114160;28;20027;-66
2022/05/13 01:58:14;;;;;;;9.93;6.85;;;12.60;99.90;;;;;;5114163;28;20069;-66
2022/05/13 02:00:42;;;;;;;8.98;8.05;;;12.50;99.90;;;;;;5113495;28;20067;-66
2022/05/13 02:05:52;;;;;;;10.95;7.47;;;12.60;99.90;;;;;;5114327;28;20156;-66
2022/05/13 02:08:18;;;;;;;7.07;5.60;;;12.50;99.90;;;;;;5113827;28;20380;-67
2022/05/13 02:10:44;;;;;;;7.03;6.40;;;12.50;99.90;;;;;;5112943;28;20040;-67
2022/05/13 02:13:10;;;;;;;8.60;6.95;;;12.40;99.90;;;;;;5114095;28;20038;-67
2022/05/13 02:15:36;;;;;;;10.43;7.30;;;12.50;99.90;;;;;;5113807;28;20079;-67
2022/05/13 02:18:02;;;;;;;8.88;7.53;;;12.40;99.90;;;;;;5113338;28;20079;-67
2022/05/13 02:20:28;;;;;;;10.35;7.00;;;12.40;99.90;;;;;;5113791;28;20032;-67
2022/05/13 02:22:53;;;;;;;9.82;8.07;;;12.50;99.90;;;;;;5112675;28;20044;-68
2022/05/13 02:25:19;;;;;;;11.77;7.95;;;12.50;99.90;;;;;;5114078;28;20043;-67
2022/05/13 02:27:44;;;;;;;11.32;7.38;;;12.50;99.90;;;;;;5113703;28;20044;-67
2022/05/13 02:30:11;;;;;;;9.77;6.97;;;12.40;99.90;;;;;;5113551;28;20031;-67
2022/05/13 02:32:37;;;;;;;10.20;8.82;;;12.50;99.90;;;;;;5112571;28;20404;-67
2022/05/13 02:35:04;;;;;;;9.00;7.18;;;12.50;99.90;;;;;;5113739;28;20046;-67
2022/05/13 02:37:29;;;;;;;9.95;7.13;;;12.50;99.90;;;;;;5113425;28;20039;-66
2022/05/13 02:39:55;;;;;;;10.52;7.78;;;12.50;99.90;;;;;;5112516;28;20442;-67
2022/05/13 02:42:20;;;;;;;16.55;7.82;;;12.40;99.90;;;;;;5113068;28;20039;-67
2022/05/13 02:44:46;;;;;;;9.80;7.95;;;12.40;99.90;;;;;;5112039;28;20509;-67
2022/05/13 02:47:11;;;;;;;10.88;7.53;;;12.40;99.90;;;;;;5113520;28;20514;-66
2022/05/13 02:49:37;;;;;;;12.15;7.25;;;12.40;99.90;;;;;;5112649;28;20040;-67
2022/05/13 02:52:03;;;;;;;10.02;9.02;;;12.40;99.90;;;;;;5113201;28;20071;-67
2022/05/13 02:54:29;;;;;;;8.05;7.25;;;12.40;99.90;;;;;;5112101;28;20075;-66
2022/05/13 02:56:54;;;;;;;12.85;6.57;;;12.40;99.90;;;;;;5113416;28;20047;-67
2022/05/13 02:59:20;;;;;;;7.35;6.63;;;12.40;99.90;;;;;;5111865;28;20036;-68
2022/05/13 03:01:45;;;;;;;8.07;6.80;;;12.30;99.90;;;;;;5113336;28;20041;-66
2022/05/13 03:04:11;;;;;;;8.38;6.85;;;12.30;99.90;;;;;;5113048;28;20043;-67
2022/05/13 03:06:36;;;;;;;8.93;6.65;;;12.30;99.90;;;;;;5113056;28;20039;-68
2022/05/13 03:09:02;;;;;;;8.30;6.60;;;12.20;99.90;;;;;;5112676;28;20077;-67
2022/05/13 03:11:29;;;;;;;11.80;7.43;;;12.20;99.90;;;;;;5113269;28;20105;-67
2022/05/13 03:13:55;;;;;;;9.52;6.68;;;12.20;99.90;;;;;;5111712;28;20043;-67
2022/05/13 03:16:23;;;;;;;8.02;6.40;;;12.10;99.90;;;;;;5112941;28;20055;-68
2022/05/13 03:18:52;;;;;;;9.38;7.25;;;12.00;99.90;;;;;;5112549;28;20142;-67
2022/05/13 03:21:18;;;;;;;10.40;6.85;;;12.00;99.90;;;;;;5112868;28;20488;-66
2022/05/13 03:23:44;;;;;;;9.15;6.97;;;12.00;99.90;;;;;;5111612;28;20123;-66
2022/05/13 03:26:11;;;;;;;9.95;6.50;;;12.10;99.90;;;;;;5112812;28;20126;-66
2022/05/13 03:28:37;;;;;;;9.85;5.55;;;12.20;99.90;;;;;;5112443;28;20062;-67
2022/05/13 03:31:03;;;;;;;15.35;6.57;;;12.10;99.90;;;;;;5112764;28;20499;-66
2022/05/13 03:33:28;;;;;;;9.55;6.03;;;12.10;99.90;;;;;;5112555;28;20099;-67
2022/05/13 03:35:54;;;;;;;9.70;6.78;;;12.10;99.90;;;;;;5111978;28;20456;-66
2022/05/13 03:38:20;;;;;;;12.00;7.18;;;12.10;99.90;;;;;;5111296;28;20616;-67
2022/05/13 03:40:49;;;;;;;12.95;6.30;;;12.10;99.90;;;;;;5112499;28;20040;-67
2022/05/13 03:43:15;;;;;;;9.85;5.93;;;12.00;99.90;;;;;;5112421;28;20078;-67
2022/05/13 03:45:41;;;;;;;8.35;6.03;;;12.10;99.90;;;;;;5112458;28;20047;-66
2022/05/13 03:48:07;;;;;;;8.10;6.25;;;12.10;99.90;;;;;;5112172;28;20046;-67
2022/05/13 03:50:35;;;;;;;7.10;6.00;;;12.00;99.90;;;;;;5111187;28;20072;-66
2022/05/13 03:53:02;;;;;;;11.13;6.10;;;12.00;99.90;;;;;;5112360;28;20047;-67
2022/05/13 03:55:28;;;;;;;12.57;5.78;;;12.10;99.90;;;;;;5112299;28;20051;-67
2022/05/13 03:57:54;;;;;;;9.88;6.20;;;12.00;99.90;;;;;;5112062;28;20047;-67
2022/05/13 04:00:20;;;;;;;7.43;5.97;;;12.00;99.90;;;;;;5110842;28;20087;-67
2022/05/13 04:02:46;;;;;;;12.65;7.93;;;12.10;99.90;;;;;;5109492;28;20039;-68
2022/05/13 04:10:42;;;;;;;7.93;6.43;;;12.00;99.90;;;;;;5108320;28;20122;-68
2022/05/13 04:16:07;;;;;;;11.52;7.53;;;12.10;99.90;;;;;;5108808;28;20055;-67
2022/05/13 04:18:38;;;;;;;12.70;5.22;;;12.20;99.90;;;;;;5108954;28;20039;-68
2022/05/13 04:21:10;;;;;;;12.10;6.30;;;12.10;99.90;;;;;;5111168;28;20072;-66
2022/05/13 04:23:38;;;;;;;14.48;5.80;;;12.10;99.90;;;;;;5111132;28;20043;-68
2022/05/13 04:26:04;;;;;;;10.65;6.88;;;12.10;99.90;;;;;;5110843;28;20476;-67
2022/05/13 04:28:30;;;;;;;8.95;6.25;;;12.10;99.90;;;;;;5110474;28;20043;-67
2022/05/13 04:30:58;;;;;;;9.85;6.47;;;12.20;99.90;;;;;;5109925;28;20043;-66
2022/05/13 04:33:24;;;;;;;15.15;5.80;;;12.10;99.90;;;;;;5111545;28;20032;-67
2022/05/13 04:35:50;;;;;;;11.40;6.93;;;12.10;99.90;;;;;;5110150;28;20105;-67
2022/05/13 04:38:15;;;;;;;11.48;7.28;;;12.20;99.90;;;;;;5110911;28;20064;-67
2022/05/13 04:40:41;;;;;;;14.07;7.13;;;12.20;99.90;;;;;;5110578;28;20047;-66
2022/05/13 04:43:06;;;;;;;11.48;6.72;;;12.30;99.90;;;;;;5111616;28;20046;-67
2022/05/13 04:45:33;;;;;;;11.50;7.22;;;12.30;99.90;;;;;;5111150;28;20063;-67
2022/05/13 04:48:16;;;;;;;14.85;7.53;;;12.30;99.90;;;;;;5110552;28;20035;-66
2022/05/13 04:50:54;;;;;;;12.43;7.03;;;12.30;99.90;;;;;;5110763;28;20044;-67
2022/05/13 04:53:26;;;;;;;14.65;8.65;;;12.30;99.90;;;;;;5108540;28;20076;-67
2022/05/13 04:55:54;;;;;;;11.60;8.15;;;12.40;99.90;;;;;;5110125;28;20415;-66
2022/05/13 04:58:22;;;;;;;10.65;9.40;;;12.30;99.90;;;;;;5109760;28;20040;-67
2022/05/13 05:00:49;;;;;;;12.02;7.70;;;12.30;99.90;;;;;;5110894;28;20040;-66
2022/05/13 05:03:17;;;;;;;15.15;7.03;;;12.30;99.90;;;;;;5111086;28;20051;-67
2022/05/13 05:05:43;;;;;;;15.13;6.93;;;12.40;99.90;;;;;;5111192;28;20379;-66
2022/05/13 05:08:13;;;;;;;15.10;7.07;;;12.40;99.90;;;;;;5111107;28;20036;-67
2022/05/13 05:10:40;;;;;;;17.27;8.15;;;12.40;99.90;;;;;;5111124;28;20368;-66
2022/05/13 05:13:07;;;;;;;15.98;7.47;;;12.40;99.90;;;;;;5113860;28;20043;-67
2022/05/13 05:15:34;;;;;;;11.82;7.57;;;12.40;99.90;;;;;;5115150;28;20075;-67
2022/05/13 05:18:00;;;;;;;16.42;7.72;;;12.40;99.90;;;;;;5115564;27;20391;-67
2022/05/13 05:20:26;;;;;;;19.02;9.05;;;12.40;99.90;;;;;;5113750;28;20123;-68
2022/05/13 05:22:51;;;;;;;12.10;7.57;;;12.40;99.90;;;;;;5114239;28;20079;-67
2022/05/13 05:25:20;;;;;;;14.70;7.40;;;12.50;99.90;;;;;;5115070;28;20072;-66
2022/05/13 05:27:46;;;;;;;17.10;6.97;;;12.40;99.90;;;;;;5113927;28;20038;-67
2022/05/13 05:30:13;;;;;;;14.30;7.63;;;12.50;99.90;;;;;;5112798;28;20492;-68
2022/05/13 05:32:40;;;;;;;19.00;6.85;;;12.50;99.90;;;;;;5114920;28;20488;-67
2022/05/13 05:35:09;;;;;;;15.30;6.97;;;12.60;99.90;;;;;;5115055;28;20036;-68
2022/05/13 05:37:34;;;;;;;12.77;6.97;;;12.60;99.90;;;;;;5114188;28;20084;-67
2022/05/13 05:40:00;;;;;;;17.90;13.30;;;12.70;99.90;;;;;;5114189;28;20078;-68
2022/05/13 05:42:26;;;;;;;29.40;10.73;;;12.70;99.90;;;;;;5114081;28;20035;-68
2022/05/13 05:44:52;;;;;;;16.23;8.57;;;12.70;99.90;;;;;;5113480;28;20040;-67
2022/05/13 05:47:21;;;;;;;16.65;9.38;;;12.80;99.90;;;;;;5114026;28;20035;-67
2022/05/13 05:49:47;;;;;;;19.33;9.93;;;12.80;99.90;;;;;;5113894;28;20061;-67
2022/05/13 05:52:13;;;;;;;14.38;9.25;;;12.80;99.90;;;;;;5113418;28;20119;-67
2022/05/13 05:57:23;;;;;;;20.77;10.77;;;12.90;99.90;;;;;;5107548;28;20133;-67
2022/05/13 05:59:48;;;;;;;17.00;9.93;;;12.90;99.90;;;;;;5093354;28;20067;-67
2022/05/13 06:02:14;;;;;;;25.60;10.55;;;13.00;99.90;;;;;;5092448;28;20040;-67
2022/05/13 06:04:40;;;;;;;16.85;9.85;;;13.00;99.90;;;;;;5093637;28;20399;-67
2022/05/13 06:07:09;;;;;;;25.55;10.50;;;13.10;99.90;;;;;;5093813;28;20032;-67
2022/05/13 06:09:36;;;;;;;17.08;14.30;;;13.20;99.90;;;;;;5092987;28;20453;-67
2022/05/13 06:12:05;;;;;;;19.77;8.80;;;13.30;99.90;;;;;;5092287;28;20123;-67
2022/05/13 06:14:30;;;;;;;26.35;9.55;;;13.30;99.90;;;;;;5092884;28;20040;-66
2022/05/13 06:16:56;;;;;;;18.33;9.40;;;13.40;99.90;;;;;;5092224;28;20054;-67
2022/05/13 06:19:21;;;;;;;20.83;9.90;;;13.50;99.90;;;;;;5093379;28;20504;-67
2022/05/13 06:21:47;;;;;;;17.30;9.15;;;13.70;99.90;;;;;;5093492;28;20047;-70
2022/05/13 06:24:13;;;;;;;12.45;9.25;;;13.80;99.90;;;;;;5093101;28;20036;-73
2022/05/13 06:26:40;;;;;;;23.27;10.07;;;13.80;99.90;;;;;;5092389;28;20487;-73
2022/05/13 06:29:06;;;;;;;18.83;9.45;;;13.80;99.90;;;;;;5092115;28;20040;-73
2022/05/13 06:31:32;;;;;;;17.00;8.73;;;13.80;99.90;;;;;;5092324;28;20055;-73
2022/05/13 06:33:57;;;;;;;19.50;8.75;;;13.90;99.90;;;;;;5075431;28;20550;-74
2022/05/13 06:36:23;;;;;;;15.30;8.50;;;14.00;99.90;;;;;;5093640;28;20492;-73
2022/05/13 06:38:49;;;;;;;13.35;7.75;;;14.10;99.90;;;;;;5090443;28;20047;-73
2022/05/13 06:41:15;;;;;;;18.40;8.07;;;14.10;99.90;;;;;;5092026;28;20509;-73
2022/05/13 06:43:40;;;;;;;18.17;6.90;;;14.10;99.90;;;;;;5090984;28;20047;-73
2022/05/13 06:46:06;;;;;;;14.90;8.68;;;14.20;99.90;;;;;;5091902;28;20048;-73
2022/05/13 06:48:31;;;;;;;15.48;6.55;;;14.20;99.90;;;;;;5091463;28;20418;-72
2022/05/13 06:50:57;;;;;;;14.98;6.63;;;14.20;99.90;;;;;;5091912;28;20404;-72
2022/05/13 06:53:23;;;;;;;14.48;7.07;;;14.20;99.90;;;;;;5092951;28;20133;-72
2022/05/13 06:55:50;;;;;;;14.20;7.85;;;14.30;99.90;;;;;;5091875;28;20125;-72
2022/05/13 06:58:16;;;;;;;10.77;6.82;;;14.30;99.90;;;;;;5091484;28;20069;-73
2022/05/13 07:00:43;;;;;;;11.18;7.00;;;14.30;99.90;;;;;;5086619;28;20048;-73
2022/05/13 07:03:17;;;;;;;17.20;7.25;;;14.30;99.90;;;;;;5081086;28;20496;-73
2022/05/13 07:05:43;;;;;;;10.13;6.47;;;14.30;99.90;;;;;;5080674;28;20481;-70
2022/05/13 07:08:09;;;;;;;16.00;7.10;;;14.40;99.90;;;;;;5076594;28;20041;-72
2022/05/13 07:10:39;;;;;;;12.90;7.70;;;14.40;99.90;;;;;;5089913;28;20036;-71
2022/05/13 07:13:05;;;;;;;11.85;8.93;;;14.50;99.90;;;;;;5089756;28;20071;-73
2022/05/13 07:15:30;;;;;;;12.38;7.18;;;14.50;99.90;;;;;;5090046;28;20044;-73
2022/05/13 07:17:57;;;;;;;13.57;6.82;;;14.50;99.90;;;;;;5092540;28;20044;-74
2022/05/13 07:20:25;;;;;;;14.77;6.93;;;14.50;99.90;;;;;;5090374;28;20048;-72
2022/05/13 07:22:51;;;;;;;11.48;7.63;;;14.60;99.90;;;;;;5092602;28;20377;-72
2022/05/13 07:25:17;;;;;;;10.30;6.00;;;14.60;99.90;;;;;;5091188;28;20040;-73
2022/05/13 07:27:43;;;;;;;13.05;7.50;;;14.70;99.90;;;;;;5091050;28;20086;-73
2022/05/13 07:30:10;;;;;;;13.40;6.07;;;14.70;99.90;;;;;;5090278;28;20028;-72
2022/05/13 07:32:35;;;;;;;9.02;6.03;;;14.80;99.90;;;;;;5092387;28;20036;-72
2022/05/13 07:35:01;;;;;;;13.88;7.35;;;14.90;99.90;;;;;;5090170;28;20116;-73
2022/05/13 07:37:27;;;;;;;11.00;8.30;;;14.90;99.90;;;;;;5091067;28;20079;-73
2022/05/13 07:42:36;;;;;;;10.52;6.75;;;15.00;99.90;;;;;;5071284;28;20057;-72
2022/05/13 07:45:03;;;;;;;8.80;5.70;;;15.10;99.90;;;;;;5071028;28;20033;-72
2022/05/13 07:47:28;;;;;;;12.48;6.43;;;15.30;99.90;;;;;;5071813;28;20124;-72
2022/05/13 07:49:54;;;;;;;12.77;6.57;;;15.40;99.90;;;;;;5078640;28;20093;-72
2022/05/13 07:52:19;;;;;;;10.30;6.60;;;15.50;99.90;;;;;;5088075;28;20044;-72
2022/05/13 07:54:45;;;;;;;10.82;7.18;;;15.40;99.90;;;;;;5087719;28;20037;-72
2022/05/13 07:57:10;;;;;;;11.02;8.00;;;15.40;99.90;;;;;;5086726;28;20036;-72
2022/05/13 08:00:24;;;;;;;10.57;7.22;;;15.40;99.90;;;;;;5074840;28;20052;-72
2022/05/13 08:02:22;;;;;;;11.80;7.47;;;15.50;99.90;;;;;;5069083;28;20381;-73
2022/05/13 08:04:48;;;;;;;13.52;7.13;;;15.40;99.90;;;;;;5069982;28;20044;-73
2022/05/13 08:07:15;;;;;;;14.23;7.75;;;15.50;99.90;;;;;;5070378;28;20032;-73
2022/05/13 08:09:40;;;;;;;9.85;6.22;;;15.60;99.90;;;;;;5069672;28;20036;-73
2022/05/13 08:12:06;;;;;;;10.15;7.78;;;15.70;99.90;;;;;;5070680;28;20090;-72
2022/05/13 08:14:32;;;;;;;7.53;6.50;;;15.80;99.90;;;;;;5052779;28;20055;-73
2022/05/13 08:16:57;;;;;;;8.05;6.68;;;15.80;99.90;;;;;;5070288;28;20047;-74
2022/05/13 08:19:23;;;;;;;13.82;7.55;;;15.90;99.90;;;;;;5071534;28;20128;-72
2022/05/13 08:21:48;;;;;;;13.02;7.95;;;15.90;99.90;;;;;;5074069;28;20040;-72
2022/05/13 08:24:14;;;;;;;6.25;5.65;;;16.00;99.90;;;;;;5079226;28;20076;-71
2022/05/13 08:26:40;;;;;;;7.18;6.43;;;16.00;99.90;;;;;;5075189;28;20485;-75
2022/05/13 08:29:05;;;;;;;11.77;6.53;;;16.10;99.90;;;;;;5070653;28;20116;-73
2022/05/13 08:31:31;;;;;;;9.68;5.35;;;16.20;99.90;;;;;;5071560;28;20040;-73
2022/05/13 08:33:56;;;;;;;9.68;5.55;;;16.20;99.90;;;;;;5070372;28;20048;-74
2022/05/13 08:36:22;;;;;;;10.10;5.20;;;16.10;99.90;;;;;;5069786;28;20165;-74
2022/05/13 08:38:50;;;;;;;10.35;6.10;;;16.00;99.90;;;;;;5070300;28;20145;-72
2022/05/13 08:41:41;;;;;;;9.80;7.13;;;16.00;99.90;;;;;;5070875;28;20048;-73
2022/05/13 08:44:09;;;;;;;9.52;8.02;;;15.90;99.90;;;;;;5069341;28;20052;-75
2022/05/13 08:46:41;;;;;;;11.10;6.97;;;16.00;99.90;;;;;;5069404;28;20051;-73
2022/05/13 08:49:10;;;;;;;7.28;6.00;;;15.90;99.90;;;;;;5053188;28;20044;-73
2022/05/13 08:51:51;;;;;;;10.45;7.32;;;16.10;99.90;;;;;;5069949;28;20047;-73
2022/05/13 08:54:24;;;;;;;9.32;7.72;;;16.40;99.90;;;;;;5077479;28;20098;-73
2022/05/13 08:56:50;;;;;;;;;;;16.60;99.90;;;;;;5070233;28;20047;-73
2022/05/13 08:59:27;;;;;;;10.43;9.48;;;16.70;99.90;;;;;;5071871;28;19969;-72
2022/05/13 09:02:01;;;;;;;9.98;8.77;;;16.70;99.90;;;;;;5087379;28;20036;-73
2022/05/13 09:04:37;;;;;;;10.45;6.45;;;16.70;99.90;;;;;;5087502;28;20404;-72
2022/05/13 09:07:06;;;;;;;11.18;9.25;;;16.70;99.90;;;;;;5090951;28;20036;-72
2022/05/13 09:09:34;;;;;;;8.85;7.68;;;16.60;99.90;;;;;;5082910;28;20068;-72
2022/05/13 09:12:18;;;;;;;13.20;9.38;;;16.60;99.90;;;;;;5068471;28;20036;-74
2022/05/13 09:14:57;;;;;;;11.43;9.20;;;16.50;99.90;;;;;;5075928;28;20094;-74
2022/05/13 09:17:34;;;;;;;10.50;9.32;;;16.60;99.90;;;;;;5076385;28;20044;-74
2022/05/13 09:19:59;;;;;;;12.90;11.57;;;16.70;99.90;;;;;;5073643;28;20493;-74
2022/05/13 09:22:34;;;;;;;11.20;7.43;;;16.70;99.90;;;;;;5079587;28;20036;-75
2022/05/13 09:24:59;;;;;;;10.60;9.60;;;16.70;99.90;;;;;;5075012;28;20040;-74
2022/05/13 09:27:25;;;;;;;11.13;9.02;;;16.80;99.90;;;;;;5079698;28;20028;-73
2022/05/13 09:29:51;;;;;;;10.27;8.52;;;16.70;99.90;;;;;;5076507;28;20075;-73
2022/05/13 09:32:29;;;;;;;10.40;9.00;;;16.70;99.90;;;;;;5079938;28;20094;-73
2022/05/13 09:35:08;;;;;;;13.05;8.23;;;16.70;99.90;;;;;;5077366;28;20081;-73
2022/05/13 09:37:43;;;;;;;10.27;9.27;;;16.60;99.90;;;;;;5078134;28;20032;-74
2022/05/13 09:40:18;;;;;;;12.13;10.38;;;16.80;99.90;;;;;;5076807;28;20481;-74
2022/05/13 09:42:49;;;;;;;9.05;8.20;;;16.90;99.90;;;;;;5077752;28;20041;-73
2022/05/13 09:45:21;;;;;;;10.48;9.45;;;16.90;99.90;;;;;;5078516;28;20454;-73
2022/05/13 09:48:05;;;;;;;9.40;8.63;;;16.90;99.90;;;;;;5077834;28;20032;-74
2022/05/13 09:50:42;;;;;;;11.23;9.32;;;16.90;99.90;;;;;;5077623;28;20028;-73
2022/05/13 09:53:23;;;;;;;11.10;10.23;;;16.80;99.90;;;;;;5083190;28;20040;-73
2022/05/13 09:55:51;;;;;;;10.73;9.88;;;16.80;99.90;;;;;;5090453;28;20079;-74
2022/05/13 09:58:20;;;;;;;9.88;9.02;;;16.70;99.90;;;;;;5073252;28;20455;-76
2022/05/13 10:00:50;;;;;;;12.77;11.77;;;16.70;99.90;;;;;;5092579;28;20177;-73
2022/05/13 10:03:20;;;;;;;13.02;11.75;;;16.80;99.90;;;;;;5092158;28;20048;-73
2022/05/13 10:06:11;;;;;;;12.65;11.43;;;16.70;99.90;;;;;;5092089;28;20050;-72
2022/05/13 10:08:49;;;;;;;8.85;7.93;;;16.70;99.90;;;;;;5091240;28;20048;-74
2022/05/13 10:14:22;;;;;;;10.10;8.38;;;16.40;99.90;;;;;;5092394;28;20047;-72
2022/05/13 10:16:50;;;;;;;9.82;8.93;;;16.50;99.90;;;;;;5092448;28;20399;-72
2022/05/13 10:19:36;;;;;;;9.93;8.52;;;16.70;99.90;;;;;;5092241;28;20496;-72
2022/05/13 10:22:21;;;;;;;14.70;8.93;;;16.90;99.90;;;;;;5092818;28;20470;-73
2022/05/13 10:25:04;;;;;;;11.13;9.98;;;17.00;99.90;;;;;;5093689;28;20044;-73
2022/05/13 10:27:36;;;;;;;;;;;17.00;99.90;;;;;;5094132;28;20040;-72
2022/05/13 10:30:13;;;;;;;20.58;18.65;;;17.10;99.90;;;;;;5092124;28;20011;-73
2022/05/13 10:32:54;;;;;;;20.92;19.40;;;17.20;99.90;;;;;;5092416;28;20044;-71
2022/05/13 10:35:23;;;;;;;14.95;13.45;;;17.40;99.90;;;;;;5093776;28;20040;-72
2022/05/13 10:37:59;;;;;;;14.90;13.48;;;17.30;99.90;;;;;;5092155;28;20530;-73
2022/05/13 10:40:29;;;;;;;11.50;10.57;;;17.30;99.90;;;;;;5091904;28;20127;-72
2022/05/13 10:43:04;;;;;;;15.07;13.55;;;17.30;99.90;;;;;;5092407;28;20097;-72
2022/05/13 10:45:31;;;;;;;9.25;7.85;;;17.30;99.90;;;;;;5092103;28;20044;-73
2022/05/13 10:48:15;;;;;;;10.40;9.40;;;17.40;99.90;;;;;;5074279;28;20131;-72
2022/05/13 10:50:49;;;;;;;11.55;10.15;;;17.50;99.90;;;;;;5071521;28;20041;-72
2022/05/13 10:53:46;;;;;;;13.90;11.98;;;17.60;99.90;;;;;;5072034;28;20378;-72
2022/05/13 10:56:34;;;;;;;12.73;11.75;;;17.70;99.90;;;;;;5072879;28;20059;-72
2022/05/13 10:59:18;;;;;;;14.07;12.90;;;17.70;99.90;;;;;;5071200;28;20048;-72
2022/05/13 11:02:22;;;;;;;13.57;12.20;;;17.60;99.90;;;;;;5070802;28;20409;-74
2022/05/13 11:05:22;;;;;;;14.00;12.65;;;17.50;99.90;;;;;;5071930;28;20036;-74
2022/05/13 11:08:06;;;;;;;14.18;13.00;;;17.60;99.90;;;;;;5072104;28;20552;-75
2022/05/13 11:10:42;;;;;;;18.20;16.63;;;17.90;99.90;;;;;;5071054;28;20111;-73
2022/05/13 11:13:24;;;;;;;18.83;14.60;;;18.10;99.90;;;;;;5070288;28;20048;-72
2022/05/13 11:15:54;;;;;;;13.13;12.13;;;18.20;99.90;;;;;;5072091;28;20115;-73
2022/05/13 11:18:23;;;;;;;24.30;22.48;;;18.30;99.90;;;;;;5072317;28;20032;-74
2022/05/13 11:20:51;;;;;;;12.95;11.18;;;18.40;99.90;;;;;;5071042;28;20071;-73
2022/05/13 11:23:42;;;;;;;12.15;9.23;;;18.50;99.90;;;;;;5072105;28;20123;-73
2022/05/13 11:26:32;;;;;;;17.35;13.45;;;18.50;99.90;;;;;;5072364;28;20516;-72
2022/05/13 11:29:05;;;;;;;12.20;10.90;;;18.70;99.90;;;;;;5071002;28;20037;-73
2022/05/13 11:31:49;;;;;;;14.13;11.50;;;18.70;99.90;;;;;;5072260;28;20044;-72
2022/05/13 11:34:20;;;;;;;12.55;11.40;;;18.70;99.90;;;;;;5071368;28;20468;-73
2022/05/13 11:37:00;;;;;;;15.15;13.63;;;18.50;99.90;;;;;;5071965;28;20044;-72
2022/05/13 11:39:34;;;;;;;12.90;8.98;;;18.50;99.90;;;;;;5069706;28;20063;-70
2022/05/13 11:42:14;;;;;;;12.45;10.60;;;18.60;99.90;;;;;;5069728;28;20051;-72
2022/05/13 11:44:56;;;;;;;11.93;10.20;;;18.80;99.90;;;;;;5070544;28;20401;-72
2022/05/13 11:47:41;;;;;;;17.15;15.73;;;18.70;99.90;;;;;;5071536;28;20066;-73
2022/05/13 11:50:07;;;;;;;11.38;10.40;;;18.60;99.90;;;;;;5070029;28;20055;-72
2022/05/13 11:52:39;;;;;;;9.32;8.50;;;18.80;99.90;;;;;;5070743;28;20040;-74
2022/05/13 11:55:16;;;;;;;7.32;2.15;;;18.90;99.90;;;;;;5071726;28;20665;-73
2022/05/13 11:57:48;;;;;;;7.32;1.80;;;18.60;99.30;;;;;;5070116;28;21705;-72
2022/05/13 12:00:38;;;;;;;11.13;2.60;;;18.70;99.90;;;;;;5070659;28;20036;-72
2022/05/13 12:03:16;;;;;;;5.35;2.00;;;18.70;99.90;;;;;;5070284;28;20488;-73
2022/05/13 12:05:50;;;;;;;7.32;1.77;;;18.50;99.90;;;;;;5070342;28;20045;-71
2022/05/13 12:08:20;;;;;;;3.45;1.83;;;18.50;99.90;;;;;;5070355;28;20082;-73
2022/05/13 12:11:02;;;;;;;8.48;1.95;;;18.40;99.90;;;;;;5071559;28;20055;-72
2022/05/13 12:13:37;;;;;;;11.55;2.00;;;18.50;99.90;;;;;;5071411;28;20048;-72
2022/05/13 12:16:22;;;;;;;6.80;1.90;;;18.60;99.90;;;;;;5071626;28;20127;-72
2022/05/13 12:19:17;;;;;;;9.57;2.20;;;18.50;99.90;;;;;;5069680;28;20512;-72
2022/05/13 12:22:11;;;;;;;5.85;1.67;;;18.40;99.90;;;;;;5069873;28;20048;-70
2022/05/13 12:25:01;;;;;;;6.07;1.98;;;18.60;99.90;;;;;;5073493;28;20109;-69
2022/05/13 12:27:35;;;;;;;7.32;1.60;;;18.60;99.90;;;;;;5070434;28;20036;-71
2022/05/13 12:30:21;;;;;;;10.38;2.63;;;18.70;99.90;;;;;;5069809;28;20076;-70
2022/05/13 12:32:49;;;;;;;10.23;2.05;;;18.70;99.90;;;;;;5069558;28;20127;-67
2022/05/13 12:38:23;;;;;;;4.05;1.52;;;18.90;99.90;;;;;;5070141;28;20524;-68
2022/05/13 12:41:09;;;;;;;8.07;1.55;;;18.90;99.90;;;;;;5069934;28;20037;-69
2022/05/13 12:43:54;;;;;;;11.55;1.83;;;19.00;99.10;;;;;;5070474;28;20146;-68
2022/05/13 12:46:42;;;;;;;11.05;2.10;;;19.00;99.50;;;;;;5069059;28;20036;-67
2022/05/13 12:49:17;;;;;;;10.77;1.83;;;19.00;99.10;;;;;;5070598;28;20033;-67
2022/05/13 12:52:23;;;;;;;7.65;1.55;;;19.10;98.70;;;;;;5070958;28;20064;-68
2022/05/13 12:54:52;;;;;;;7.57;1.52;;;19.10;99.20;;;;;;5059974;28;20084;-70
2022/05/13 12:57:39;;;;;;;6.82;2.35;;;19.10;99.70;;;;;;5070885;28;20086;-67
2022/05/13 13:00:13;;;;;;;10.38;2.10;;;19.20;97.80;;;;;;5070307;28;20040;-68
2022/05/13 13:02:43;;;;;;;3.72;1.70;;;19.20;97.50;;;;;;5070179;28;20086;-69
2022/05/13 13:05:32;;;;;;;7.93;1.58;;;19.10;97.90;;;;;;5070623;28;20102;-68
2022/05/13 13:08:04;;;;;;;10.63;1.60;;;19.00;96.40;;;;;;5070800;28;20034;-68
2022/05/13 13:10:31;;;;;;;8.68;2.30;;;19.10;95.50;;;;;;5085997;28;20040;-68
2022/05/13 13:13:06;;;;;;;8.75;2.28;;;19.00;95.00;;;;;;5091007;28;20081;-67
2022/05/13 13:15:40;;;;;;;14.02;3.40;;;19.20;95.40;;;;;;5089902;28;20083;-67
2022/05/13 13:18:11;;;;;;;16.17;4.07;;;19.30;96.10;;;;;;5091028;28;20036;-69
2022/05/13 13:20:54;;;;;;;8.90;1.90;;;19.40;96.10;;;;;;5089270;28;20543;-68